createdAt,value
2023-05-07T00:01:20.706Z,8.60
2023-05-07T00:03:48.956Z,8.80
2023-05-07T00:06:17.519Z,8.80
2023-05-07T00:08:45.883Z,8.70
2023-05-07T00:11:14.079Z,8.60
2023-05-07T00:13:42.257Z,8.70
2023-05-07T00:16:10.622Z,8.70
2023-05-07T00:18:40.250Z,8.80
2023-05-07T00:21:08.399Z,8.80
2023-05-07T00:23:36.559Z,8.70
2023-05-07T00:26:04.979Z,8.70
2023-05-07T00:28:33.230Z,8.60
2023-05-07T00:31:01.449Z,8.50
2023-05-07T00:33:29.672Z,8.60
2023-05-07T00:35:59.193Z,8.60
2023-05-07T00:38:27.387Z,8.60
2023-05-07T00:40:55.547Z,8.50
2023-05-07T00:43:23.754Z,8.50
2023-05-07T00:45:52.055Z,8.50
2023-05-07T00:48:21.026Z,8.60
2023-05-07T00:50:49.959Z,8.50
2023-05-07T00:53:19.614Z,8.70
2023-05-07T00:55:47.996Z,8.70
2023-05-07T00:58:16.564Z,8.50
2023-05-07T01:00:44.772Z,8.50
2023-05-07T01:03:12.970Z,8.50
2023-05-07T01:05:42.632Z,8.60
2023-05-07T01:08:12.295Z,8.60
2023-05-07T01:10:44.018Z,8.50
2023-05-07T01:13:14.295Z,8.60
2023-05-07T01:15:42.960Z,8.60
2023-05-07T01:18:11.493Z,8.40
2023-05-07T01:20:40.063Z,8.50
2023-05-07T01:23:10.902Z,8.40
2023-05-07T01:25:39.117Z,8.40
2023-05-07T01:28:07.430Z,8.50
2023-05-07T01:30:37.737Z,8.40
2023-05-07T01:33:11.604Z,8.40
2023-05-07T01:35:45.681Z,8.30
2023-05-07T01:38:16.476Z,8.30
2023-05-07T01:40:45.406Z,8.20
2023-05-07T01:43:14.063Z,8.20
2023-05-07T01:45:43.592Z,8.10
2023-05-07T01:48:13.959Z,8.10
2023-05-07T01:50:43.476Z,8.00
2023-05-07T01:53:11.660Z,8.10
2023-05-07T01:55:41.208Z,8.10
2023-05-07T01:58:09.444Z,8.20
2023-05-07T02:00:37.638Z,8.10
2023-05-07T02:03:06.538Z,8.10
2023-05-07T02:05:34.773Z,8.10
2023-05-07T02:08:03.036Z,8.20
2023-05-07T02:10:31.310Z,8.40
2023-05-07T02:13:02.812Z,8.50
2023-05-07T02:15:31.091Z,8.30
2023-05-07T02:18:05.404Z,8.30
2023-05-07T02:20:33.641Z,8.30
2023-05-07T02:23:02.386Z,8.30
2023-05-07T02:25:31.149Z,8.30
2023-05-07T02:28:01.015Z,8.30
2023-05-07T02:30:29.217Z,8.40
2023-05-07T02:32:57.486Z,8.40
2023-05-07T02:35:27.003Z,8.30
2023-05-07T02:37:55.199Z,8.50
2023-05-07T02:40:23.558Z,8.40
2023-05-07T02:42:51.734Z,8.40
2023-05-07T02:45:21.326Z,8.40
2023-05-07T02:47:49.593Z,8.40
2023-05-07T02:50:18.024Z,8.30
2023-05-07T02:52:46.183Z,8.40
2023-05-07T02:55:14.560Z,8.30
2023-05-07T02:57:42.731Z,8.30
2023-05-07T03:00:16.653Z,8.30
2023-05-07T03:02:46.307Z,8.30
2023-05-07T03:05:15.402Z,8.30
2023-05-07T03:07:46.326Z,8.30
2023-05-07T03:10:14.612Z,8.30
2023-05-07T03:12:43.192Z,8.30
2023-05-07T03:15:13.648Z,8.20
2023-05-07T03:17:42.034Z,8.20
2023-05-07T03:20:14.301Z,8.20
2023-05-07T03:22:42.812Z,8.20
2023-05-07T03:25:12.953Z,8.10
2023-05-07T03:27:42.754Z,8.10
2023-05-07T03:30:13.094Z,8.10
2023-05-07T03:32:41.488Z,8.20
2023-05-07T03:35:11.194Z,8.30
2023-05-07T03:37:40.531Z,8.30
2023-05-07T03:40:11.494Z,8.20
2023-05-07T03:42:40.217Z,8.20
2023-05-07T03:45:10.508Z,8.20
2023-05-07T03:47:38.705Z,8.10
2023-05-07T03:50:07.966Z,8.20
2023-05-07T03:52:37.605Z,8.20
2023-05-07T03:55:06.762Z,8.20
2023-05-07T03:57:35.059Z,8.20
2023-05-07T04:00:04.610Z,8.30
2023-05-07T04:02:32.912Z,8.40
2023-05-07T04:05:01.471Z,8.40
2023-05-07T04:07:29.634Z,8.30
2023-05-07T04:09:59.152Z,8.30
2023-05-07T04:12:27.345Z,8.20
2023-05-07T04:14:55.908Z,8.30
2023-05-07T04:17:24.108Z,8.20
2023-05-07T04:19:52.297Z,8.20
2023-05-07T04:22:20.489Z,8.30
2023-05-07T04:24:48.665Z,8.30
2023-05-07T04:27:18.213Z,8.40
2023-05-07T04:29:48.288Z,8.50
2023-05-07T04:32:16.820Z,8.70
2023-05-07T04:34:45.083Z,8.80
2023-05-07T04:37:13.250Z,9.10
2023-05-07T04:39:41.569Z,9.30
2023-05-07T04:42:10.612Z,9.60
2023-05-07T04:44:40.184Z,9.70
2023-05-07T04:47:08.417Z,9.60
2023-05-07T04:49:36.820Z,9.50
2023-05-07T04:52:05.620Z,9.60
2023-05-07T04:54:34.017Z,9.70
2023-05-07T04:57:02.393Z,9.80
2023-05-07T04:59:31.132Z,9.90
2023-05-07T05:02:00.993Z,9.90
2023-05-07T05:04:29.406Z,9.80
2023-05-07T05:06:57.721Z,9.90
2023-05-07T05:09:25.965Z,10.00
2023-05-07T05:11:54.160Z,10.10
2023-05-07T05:14:22.518Z,10.20
2023-05-07T05:16:50.814Z,10.10
2023-05-07T05:19:20.421Z,10.20
2023-05-07T05:21:48.858Z,10.30
2023-05-07T05:24:17.215Z,10.30
2023-05-07T05:26:45.552Z,10.30
2023-05-07T05:29:13.745Z,10.10
2023-05-07T05:31:42.738Z,10.30
2023-05-07T05:34:11.278Z,10.60
2023-05-07T05:36:40.943Z,10.60
2023-05-07T05:39:09.915Z,10.60
2023-05-07T05:41:38.301Z,10.60
2023-05-07T05:44:06.678Z,10.70
2023-05-07T05:46:37.018Z,10.70
2023-05-07T05:49:05.612Z,10.70
2023-05-07T05:51:33.918Z,10.70
2023-05-07T05:54:03.619Z,10.70
2023-05-07T05:56:31.883Z,10.80
2023-05-07T05:59:00.321Z,10.60
2023-05-07T06:01:28.746Z,10.70
2023-05-07T06:03:57.005Z,10.90
2023-05-07T06:06:25.270Z,10.90
2023-05-07T06:08:53.977Z,11.20
2023-05-07T06:11:23.685Z,11.30
2023-05-07T06:13:51.921Z,11.10
2023-05-07T06:16:20.379Z,11.10
2023-05-07T06:18:48.720Z,11.40
2023-05-07T06:21:17.282Z,11.60
2023-05-07T06:23:45.616Z,11.70
2023-05-07T06:26:13.830Z,12.00
2023-05-07T06:28:43.426Z,12.30
2023-05-07T06:31:17.069Z,12.30
2023-05-07T06:33:47.091Z,12.70
2023-05-07T06:36:16.409Z,12.60
2023-05-07T06:38:44.672Z,12.60
2023-05-07T06:41:13.037Z,12.60
2023-05-07T06:43:42.652Z,12.50
2023-05-07T06:46:10.972Z,12.60
2023-05-07T06:48:39.245Z,12.80
2023-05-07T06:51:07.641Z,12.80
2023-05-07T06:53:37.074Z,12.70
2023-05-07T06:56:05.539Z,12.60
2023-05-07T06:58:34.048Z,12.60
2023-05-07T07:01:03.694Z,12.80
2023-05-07T07:03:32.392Z,12.90
2023-05-07T07:06:00.694Z,12.70
2023-05-07T07:08:29.049Z,12.60
2023-05-07T07:10:57.354Z,12.50
2023-05-07T07:13:25.968Z,12.40
2023-05-07T07:15:54.902Z,12.30
2023-05-07T07:18:24.597Z,12.40
2023-05-07T07:20:52.983Z,12.50
2023-05-07T07:23:21.420Z,12.60
2023-05-07T07:25:49.626Z,12.50
2023-05-07T07:28:17.928Z,12.30
2023-05-07T07:30:46.266Z,12.20
2023-05-07T07:33:14.422Z,12.20
2023-05-07T07:35:44.369Z,12.40
2023-05-07T07:38:12.545Z,12.80
2023-05-07T07:40:41.345Z,13.00
2023-05-07T07:43:09.948Z,13.60
2023-05-07T07:45:38.189Z,13.80
2023-05-07T07:48:07.194Z,13.80
2023-05-07T07:50:44.684Z,13.50
2023-05-07T07:53:15.092Z,13.40
2023-05-07T07:55:43.599Z,13.50
2023-05-07T07:58:11.893Z,13.60
2023-05-07T08:00:40.109Z,13.30
2023-05-07T08:03:11.254Z,13.00
2023-05-07T08:05:39.886Z,13.20
2023-05-07T08:08:08.307Z,13.60
2023-05-07T08:10:40.125Z,13.40
2023-05-07T08:13:08.774Z,13.00
2023-05-07T08:15:37.135Z,13.50
2023-05-07T08:18:05.593Z,13.50
2023-05-07T08:20:34.450Z,13.60
2023-05-07T08:23:02.709Z,13.70
2023-05-07T08:25:30.944Z,13.60
2023-05-07T08:28:00.485Z,13.50
2023-05-07T08:30:28.748Z,13.60
2023-05-07T08:32:56.994Z,13.60
2023-05-07T08:35:26.583Z,13.50
2023-05-07T08:37:54.909Z,13.40
2023-05-07T08:40:26.969Z,13.20
2023-05-07T08:42:55.673Z,13.30
2023-05-07T08:45:26.469Z,13.50
2023-05-07T08:48:00.889Z,13.60
2023-05-07T08:50:29.188Z,13.70
2023-05-07T08:52:58.374Z,13.90
2023-05-07T08:55:27.239Z,14.00
2023-05-07T08:57:55.537Z,14.20
2023-05-07T09:00:25.367Z,14.50
2023-05-07T09:02:54.583Z,14.60
2023-05-07T09:05:22.861Z,14.70
2023-05-07T09:07:53.962Z,14.60
2023-05-07T09:10:23.694Z,14.60
2023-05-07T09:12:52.961Z,14.80
2023-05-07T09:15:21.491Z,14.70
2023-05-07T09:17:51.140Z,14.60
2023-05-07T09:20:19.500Z,14.60
2023-05-07T09:22:47.700Z,14.40
2023-05-07T09:25:16.013Z,14.50
2023-05-07T09:27:45.309Z,14.20
2023-05-07T09:30:15.044Z,14.00
2023-05-07T09:32:43.409Z,13.90
2023-05-07T09:35:22.321Z,14.00
2023-05-07T09:37:50.912Z,14.10
2023-05-07T09:40:26.561Z,14.30
2023-05-07T09:42:54.959Z,14.60
2023-05-07T09:45:28.165Z,14.30
2023-05-07T09:47:58.941Z,14.30
2023-05-07T09:50:32.279Z,14.30
2023-05-07T09:53:00.897Z,14.20
2023-05-07T09:55:29.873Z,14.40
2023-05-07T09:58:00.836Z,14.60
2023-05-07T10:00:31.284Z,14.60
2023-05-07T10:03:02.645Z,14.90
2023-05-07T10:05:32.893Z,15.00
2023-05-07T10:08:04.687Z,14.90
2023-05-07T10:10:35.490Z,15.00
2023-05-07T10:13:06.902Z,15.10
2023-05-07T10:15:37.091Z,15.10
2023-05-07T10:18:08.232Z,14.90
2023-05-07T10:20:40.142Z,14.80
2023-05-07T10:23:10.378Z,14.90
2023-05-07T10:25:38.578Z,15.10
2023-05-07T10:28:12.262Z,15.30
2023-05-07T10:31:01.976Z,15.40
2023-05-07T10:33:33.580Z,15.50
2023-05-07T10:36:05.440Z,15.50
2023-05-07T10:38:34.021Z,15.50
2023-05-07T10:41:02.336Z,15.30
2023-05-07T10:43:42.956Z,15.20
2023-05-07T10:46:18.198Z,15.20
2023-05-07T10:49:13.233Z,15.40
2023-05-07T10:51:42.935Z,15.60
2023-05-07T10:54:28.205Z,15.40
2023-05-07T10:56:56.647Z,15.30
2023-05-07T10:59:44.729Z,15.30
2023-05-07T11:02:15.201Z,15.50
2023-05-07T11:04:43.851Z,15.50
2023-05-07T11:07:31.709Z,15.40
2023-05-07T11:10:04.956Z,15.30
2023-05-07T11:12:55.982Z,15.30
2023-05-07T11:15:44.256Z,15.30
2023-05-07T11:18:15.236Z,15.40
2023-05-07T11:20:58.785Z,15.30
2023-05-07T11:24:00.865Z,15.20
2023-05-07T11:26:32.049Z,15.40
2023-05-07T11:29:01.378Z,15.20
2023-05-07T11:31:30.973Z,15.30
2023-05-07T11:34:00.492Z,15.40
2023-05-07T11:36:34.234Z,15.40
2023-05-07T11:39:03.885Z,15.60
2023-05-07T11:41:39.189Z,15.40
2023-05-07T11:44:07.422Z,15.60
2023-05-07T11:46:36.347Z,15.80
2023-05-07T11:49:04.663Z,16.00
2023-05-07T11:51:33.257Z,15.90
2023-05-07T11:54:05.796Z,16.00
2023-05-07T11:56:37.403Z,16.20
2023-05-07T11:59:05.871Z,16.70
2023-05-07T12:01:34.129Z,17.20
2023-05-07T12:04:06.436Z,17.40
2023-05-07T12:06:40.054Z,17.70
2023-05-07T12:09:12.483Z,18.10
2023-05-07T12:11:41.795Z,18.50
2023-05-07T12:14:12.393Z,18.80
2023-05-07T12:16:42.841Z,18.50
2023-05-07T12:19:15.665Z,18.70
2023-05-07T12:21:44.601Z,18.80
2023-05-07T12:24:16.134Z,18.70
2023-05-07T12:26:45.677Z,18.60
2023-05-07T12:29:13.939Z,18.10
2023-05-07T12:31:43.896Z,18.50
2023-05-07T12:34:13.857Z,18.20
2023-05-07T12:36:42.959Z,18.80
2023-05-07T12:39:12.808Z,19.00
2023-05-07T12:41:56.184Z,19.20
2023-05-07T12:44:26.057Z,18.60
2023-05-07T12:46:54.537Z,18.00
2023-05-07T12:49:25.163Z,17.60
2023-05-07T12:51:57.057Z,17.00
2023-05-07T12:54:34.546Z,17.10
2023-05-07T12:57:04.927Z,18.00
2023-05-07T12:59:38.466Z,17.50
2023-05-07T13:02:07.323Z,17.40
2023-05-07T13:04:36.017Z,17.30
2023-05-07T13:07:05.286Z,17.00
2023-05-07T13:09:35.171Z,17.00
2023-05-07T13:12:03.755Z,18.00
2023-05-07T13:14:33.548Z,18.90
2023-05-07T13:17:01.773Z,18.60
2023-05-07T13:19:31.515Z,18.00
2023-05-07T13:21:59.810Z,17.90
2023-05-07T13:24:28.024Z,18.70
2023-05-07T13:26:57.604Z,19.60
2023-05-07T13:29:30.865Z,20.50
2023-05-07T13:31:59.573Z,20.80
2023-05-07T13:34:27.925Z,20.10
2023-05-07T13:36:56.490Z,18.90
2023-05-07T13:39:24.804Z,18.00
2023-05-07T13:41:53.023Z,17.20
2023-05-07T13:44:23.006Z,16.90
2023-05-07T13:46:51.301Z,16.70
2023-05-07T13:49:19.542Z,16.80
2023-05-07T13:51:47.945Z,16.60
2023-05-07T13:54:16.812Z,16.60
2023-05-07T13:56:45.055Z,16.50
2023-05-07T13:59:15.245Z,16.40
2023-05-07T14:01:44.914Z,16.30
2023-05-07T14:04:13.215Z,16.40
2023-05-07T14:06:44.224Z,16.70
2023-05-07T14:09:14.227Z,16.80
2023-05-07T14:11:42.480Z,16.60
2023-05-07T14:14:11.757Z,16.40
2023-05-07T14:16:40.076Z,16.50
2023-05-07T14:19:09.739Z,16.40
2023-05-07T14:21:38.063Z,17.10
2023-05-07T14:24:08.179Z,16.80
2023-05-07T14:26:36.655Z,16.60
2023-05-07T14:29:06.327Z,16.40
2023-05-07T14:31:34.932Z,16.50
2023-05-07T14:34:03.366Z,16.10
2023-05-07T14:36:33.011Z,15.80
2023-05-07T14:39:01.371Z,15.90
2023-05-07T14:41:29.528Z,15.90
2023-05-07T14:43:57.812Z,15.90
2023-05-07T14:46:26.832Z,15.80
2023-05-07T14:48:55.475Z,15.60
2023-05-07T14:51:24.619Z,15.50
2023-05-07T14:53:54.236Z,15.30
2023-05-07T14:56:22.602Z,15.50
2023-05-07T14:58:51.144Z,15.60
2023-05-07T15:01:19.505Z,15.50
2023-05-07T15:03:47.888Z,15.30
2023-05-07T15:06:16.824Z,15.30
2023-05-07T15:08:45.169Z,15.80
2023-05-07T15:11:14.763Z,15.70
2023-05-07T15:13:44.716Z,15.40
2023-05-07T15:16:13.205Z,15.70
2023-05-07T15:21:09.778Z,15.50
2023-05-07T15:23:38.081Z,15.60
2023-05-07T15:26:08.528Z,15.60
2023-05-07T15:28:40.423Z,15.50
2023-05-07T15:31:10.057Z,15.50
2023-05-07T15:33:38.257Z,15.40
2023-05-07T15:36:08.014Z,15.30
2023-05-07T15:38:36.772Z,15.30
2023-05-07T15:41:05.434Z,15.30
2023-05-07T15:43:33.808Z,15.10
2023-05-07T15:46:03.339Z,15.30
2023-05-07T15:48:31.646Z,15.10
2023-05-07T15:51:00.854Z,15.00
2023-05-07T15:53:29.043Z,15.20
2023-05-07T15:55:57.267Z,15.20
2023-05-07T15:58:25.471Z,15.20
2023-05-07T16:00:54.575Z,15.10
2023-05-07T16:03:27.195Z,15.10
2023-05-07T16:05:57.731Z,14.90
2023-05-07T16:08:26.086Z,14.70
2023-05-07T16:10:54.995Z,14.50
2023-05-07T16:13:24.990Z,14.40
2023-05-07T16:15:58.536Z,14.40
2023-05-07T16:18:28.394Z,14.40
2023-05-07T16:20:57.956Z,14.20
2023-05-07T16:23:27.182Z,14.20
2023-05-07T16:25:55.487Z,14.40
2023-05-07T16:28:25.600Z,14.40
2023-05-07T16:30:54.279Z,14.40
2023-05-07T16:33:22.817Z,14.40
2023-05-07T16:35:55.173Z,14.40
2023-05-07T16:38:23.456Z,14.30
2023-05-07T16:40:51.664Z,14.30
2023-05-07T16:43:20.055Z,14.20
2023-05-07T16:45:48.287Z,14.30
2023-05-07T16:48:16.910Z,14.30
2023-05-07T16:50:45.974Z,14.30
2023-05-07T16:53:15.584Z,14.20
2023-05-07T16:55:44.453Z,14.20
2023-05-07T16:58:13.874Z,14.10
2023-05-07T17:00:50.681Z,14.10
2023-05-07T17:03:20.252Z,14.00
2023-05-07T17:05:48.890Z,14.00
2023-05-07T17:08:18.522Z,13.70
2023-05-07T17:10:46.731Z,13.60
2023-05-07T17:13:15.189Z,13.70
2023-05-07T17:15:46.459Z,13.70
2023-05-07T17:18:14.961Z,13.60
2023-05-07T17:20:43.328Z,13.60
2023-05-07T17:23:11.553Z,13.60
2023-05-07T17:25:45.398Z,13.60
2023-05-07T17:28:13.672Z,13.40
2023-05-07T17:30:42.051Z,13.30
2023-05-07T17:33:21.006Z,13.30
2023-05-07T17:35:50.642Z,13.20
2023-05-07T17:38:18.860Z,13.30
2023-05-07T17:40:48.688Z,13.20
2023-05-07T17:43:17.108Z,13.30
2023-05-07T17:45:45.374Z,13.40
2023-05-07T17:48:13.618Z,13.30
2023-05-07T17:50:41.912Z,13.30
2023-05-07T17:53:10.141Z,13.20
2023-05-07T17:55:43.606Z,13.20
2023-05-07T17:58:13.611Z,13.20
2023-05-07T18:00:41.908Z,13.10
2023-05-07T18:03:10.329Z,13.00
2023-05-07T18:05:39.742Z,12.90
2023-05-07T18:08:08.372Z,12.80
2023-05-07T18:10:36.961Z,12.60
2023-05-07T18:13:05.267Z,12.50
2023-05-07T18:15:34.942Z,12.30
2023-05-07T18:18:03.261Z,12.10
2023-05-07T18:20:31.616Z,12.10
2023-05-07T18:22:59.833Z,12.00
2023-05-07T18:25:28.074Z,12.00
2023-05-07T18:27:56.393Z,12.00
2023-05-07T18:30:24.665Z,11.90
2023-05-07T18:32:54.342Z,11.80
2023-05-07T18:35:22.649Z,11.70
2023-05-07T18:37:50.896Z,11.60
2023-05-07T18:40:20.958Z,11.50
2023-05-07T18:42:49.200Z,11.40
2023-05-07T18:45:17.703Z,11.30
2023-05-07T18:47:46.250Z,11.20
2023-05-07T18:50:16.494Z,11.10
2023-05-07T18:52:44.782Z,11.10
2023-05-07T18:55:13.490Z,10.90
2023-05-07T18:57:42.763Z,10.90
2023-05-07T19:00:13.040Z,10.90
2023-05-07T19:02:41.664Z,10.90
2023-05-07T19:05:10.628Z,10.80
2023-05-07T19:07:40.343Z,10.70
2023-05-07T19:10:10.827Z,10.70
2023-05-07T19:12:39.208Z,10.60
2023-05-07T19:15:09.015Z,10.60
2023-05-07T19:17:37.284Z,10.50
2023-05-07T19:22:35.944Z,10.40
2023-05-07T19:25:06.926Z,10.50
2023-05-07T19:27:35.715Z,10.40
2023-05-07T19:30:04.658Z,10.30
2023-05-07T19:32:33.062Z,10.20
2023-05-07T19:35:01.280Z,10.20
2023-05-07T19:37:30.108Z,10.10
2023-05-07T19:39:58.481Z,10.00
2023-05-07T19:42:28.226Z,10.10
2023-05-07T19:44:56.404Z,10.00
2023-05-07T19:47:24.661Z,9.90
2023-05-07T19:49:52.968Z,9.80
2023-05-07T19:52:21.236Z,9.70
2023-05-07T19:54:49.494Z,9.70
2023-05-07T19:57:17.997Z,9.70
2023-05-07T19:59:48.280Z,9.60
2023-05-07T20:02:16.629Z,9.70
2023-05-07T20:04:44.992Z,9.50
2023-05-07T20:07:13.261Z,9.40
2023-05-07T20:09:41.603Z,9.40
2023-05-07T20:12:10.174Z,9.30
2023-05-07T20:14:38.480Z,9.20
2023-05-07T20:17:08.043Z,9.20
2023-05-07T20:19:36.236Z,9.20
2023-05-07T20:22:04.696Z,9.10
2023-05-07T20:24:37.969Z,9.10
2023-05-07T20:27:06.694Z,9.00
2023-05-07T20:29:35.044Z,9.00
2023-05-07T20:32:03.535Z,8.90
2023-05-07T20:34:33.298Z,8.90
2023-05-07T20:37:01.891Z,8.80
2023-05-07T20:39:30.086Z,8.80
2023-05-07T20:41:59.706Z,8.90
2023-05-07T20:44:27.916Z,8.90
2023-05-07T20:46:56.153Z,8.90
2023-05-07T20:49:24.272Z,8.90
2023-05-07T20:51:53.934Z,8.90
2023-05-07T20:54:23.062Z,8.80
2023-05-07T20:56:51.297Z,8.80
2023-05-07T20:59:19.471Z,8.80
2023-05-07T21:01:47.713Z,8.80
2023-05-07T21:04:15.979Z,8.80
2023-05-07T21:06:44.736Z,8.80
2023-05-07T21:09:14.340Z,8.70
2023-05-07T21:11:42.548Z,8.70
2023-05-07T21:14:10.804Z,8.80
2023-05-07T21:16:40.042Z,8.90
2023-05-07T21:19:08.374Z,9.00
2023-05-07T21:21:36.831Z,8.90
2023-05-07T21:24:06.048Z,8.80
2023-05-07T21:26:35.834Z,8.70
2023-05-07T21:29:04.102Z,8.50
2023-05-07T21:31:32.288Z,8.60
2023-05-07T21:34:00.554Z,8.50
2023-05-07T21:36:29.068Z,8.60
2023-05-07T21:38:57.286Z,8.50
2023-05-07T21:41:26.117Z,8.50
2023-05-07T21:43:55.907Z,8.50
2023-05-07T21:46:24.175Z,8.60
2023-05-07T21:48:52.696Z,8.50
2023-05-07T21:51:20.998Z,8.50
2023-05-07T21:53:49.190Z,8.50
2023-05-07T21:56:17.387Z,8.50
2023-05-07T21:58:45.649Z,8.50
2023-05-07T22:01:15.283Z,8.60
2023-05-07T22:03:43.617Z,8.60
2023-05-07T22:06:11.980Z,8.50
2023-05-07T22:08:40.296Z,8.50
2023-05-07T22:11:08.450Z,8.60
2023-05-07T22:13:36.614Z,8.50
2023-05-07T22:16:05.262Z,8.50
2023-05-07T22:18:34.986Z,8.40
2023-05-07T22:21:05.293Z,8.30
2023-05-07T22:23:33.428Z,8.30
2023-05-07T22:26:01.693Z,8.30
2023-05-07T22:28:29.940Z,8.20
2023-05-07T22:30:58.156Z,8.20
2023-05-07T22:33:26.657Z,8.20
2023-05-07T22:35:56.318Z,8.20
2023-05-07T22:38:24.541Z,8.10
2023-05-07T22:40:52.727Z,8.10
2023-05-07T22:43:21.260Z,8.00
2023-05-07T22:45:49.629Z,8.00
2023-05-07T22:48:17.812Z,7.90
2023-05-07T22:50:46.195Z,7.90
2023-05-07T22:53:15.870Z,7.90
2023-05-07T22:55:44.261Z,7.80
2023-05-07T22:58:12.443Z,7.80
2023-05-07T23:00:41.250Z,7.80
2023-05-07T23:03:09.702Z,7.80
2023-05-07T23:05:38.318Z,7.60
2023-05-07T23:08:07.276Z,7.60
2023-05-07T23:10:36.820Z,7.60
2023-05-07T23:13:05.208Z,7.70
2023-05-07T23:15:34.051Z,7.70
2023-05-07T23:18:02.413Z,7.60
2023-05-07T23:20:30.744Z,7.60
2023-05-07T23:22:59.263Z,7.60
2023-05-07T23:25:28.035Z,7.60
2023-05-07T23:27:57.558Z,7.60
2023-05-07T23:30:25.986Z,7.50
2023-05-07T23:32:54.714Z,7.40
2023-05-07T23:35:23.227Z,7.40
2023-05-07T23:37:51.525Z,7.40
2023-05-07T23:40:20.002Z,7.30
2023-05-07T23:42:48.255Z,7.40
2023-05-07T23:45:18.216Z,7.40
2023-05-07T23:47:46.521Z,7.30
2023-05-07T23:50:14.889Z,7.10
2023-05-07T23:52:43.159Z,7.10
2023-05-07T23:55:11.925Z,7.10
2023-05-07T23:57:40.270Z,7.00
